Mendon, Vermont
Current Conditions -  °F | °C
As of 4:35 AM on Saturday 25 Oct 2014 (Local Time) from KRUT Reporting Station
Clear Clear  
Wind Chill: 31°   Ceiling: Unl
Heat Index: 36°   Visibility: 10mi
Dew Point: 34°   Wind: 6mph
Humidity: 93%   Direction: 140°SE
Pressure: 29.79"   Gusts: NA
Location:  43.6369°N, 72.9375°W
Report Text: KRUT 250835Z 14005KT 10SM CLR 02/01 A2979 RMK AO1
Loading
Personal Weather Stations






























Interactive Weather Map
Tropical Storm Tracking
New forecast layout! Learn more

10-Day Weather Forecast

Advertisements
Track Severe Weather on mobile